Time;durP1;ratioP1;P1;durP2;ratioP2;P2;SDS_P1;SDS_P2;PMS_P1;PMS_P2;Temp;Humidity;BMP_temperature;BMP_pressure;BME280_temperature;BME280_humidity;BME280_pressure;Samples;Min_cycle;Max_cycle;Signal;HPM_P1;HPM_P2
2023/11/28 01:10:41;;;;;;;50.20;26.90;;;0.10;99.90;;;;;;4652291;29;20666;-84
2023/11/28 01:41:12;;;;;;;48.23;28.03;;;0.00;99.90;;;;;;4773505;29;20220;-84
2023/11/28 01:45:33;;;;;;;49.37;28.53;;;0.00;99.90;;;;;;4686003;29;20523;-85
2023/11/28 02:06:29;;;;;;;55.53;28.57;;;-0.10;99.90;;;;;;4734328;29;20633;-83
2023/11/28 02:31:46;;;;;;;47.27;27.03;;;-0.10;99.90;;;;;;4589539;30;20588;-82
2023/11/28 04:12:50;;;;;;;54.80;28.30;;;-1.90;99.90;;;;;;4517184;30;20678;-84
2023/11/28 04:43:44;;;;;;;66.33;31.23;;;-1.50;99.90;;;;;;4581923;30;20303;-85
2023/11/28 05:14:07;;;;;;;62.77;29.70;;;-1.40;99.90;;;;;;4638466;29;20933;-83
2023/11/28 05:39:31;;;;;;;70.63;33.90;;;-1.90;99.90;;;;;;4686056;29;20216;-83
2023/11/28 05:59:41;;;;;;;63.87;31.07;;;-2.20;99.90;;;;;;4666128;29;20286;-85
2023/11/28 06:20:14;;;;;;;65.10;32.20;;;-2.30;99.90;;;;;;4580419;30;20315;-83
2023/11/28 06:50:31;;;;;;;64.60;32.17;;;-2.70;99.90;;;;;;4632491;29;20427;-82
2023/11/28 07:20:58;;;;;;;67.77;32.17;;;-2.50;99.90;;;;;;4434516;30;20910;-80
2023/11/28 07:46:33;;;;;;;65.83;33.40;;;-2.10;99.90;;;;;;4535016;30;20574;-82
2023/11/28 08:06:33;;;;;;;66.63;32.80;;;-1.90;99.90;;;;;;4487018;30;20766;-82
2023/11/28 08:32:17;;;;;;;65.23;32.07;;;-1.60;99.90;;;;;;4588128;30;20979;-83
2023/11/28 08:36:36;;;;;;;66.47;32.30;;;-1.70;99.90;;;;;;4548038;30;21352;-79
2023/11/28 08:57:33;;;;;;;62.00;32.40;;;-1.50;99.90;;;;;;4599555;29;20561;-81
2023/11/28 09:22:58;;;;;;;59.30;28.23;;;-1.40;99.90;;;;;;4547203;30;20233;-80
2023/11/28 09:48:37;;;;;;;50.47;23.53;;;-0.90;99.90;;;;;;4690199;29;21447;-83
2023/11/28 09:52:46;;;;;;;46.67;22.80;;;-1.00;99.90;;;;;;4607628;29;20856;-79
2023/11/28 10:13:33;;;;;;;52.57;25.00;;;-0.80;99.90;;;;;;4582466;29;20213;-82
2023/11/28 10:43:31;;;;;;;48.17;25.47;;;-0.40;99.90;;;;;;4410408;30;20727;-82
2023/11/28 11:04:04;;;;;;;45.17;23.57;;;-0.40;99.90;;;;;;4481003;30;20562;-82
2023/11/28 11:24:19;;;;;;;39.17;20.77;;;-0.20;99.90;;;;;;4447620;30;20250;-83
2023/11/28 11:54:36;;;;;;;34.57;16.97;;;-0.30;99.90;;;;;;4613623;29;20579;-82
2023/11/28 12:15:00;;;;;;;44.23;22.67;;;-0.20;99.90;;;;;;4515069;30;20666;-82
2023/11/28 13:21:21;;;;;;;43.87;23.67;;;-0.50;99.90;;;;;;4443522;30;20253;-81
2023/11/28 13:46:47;;;;;;;37.70;21.13;;;-0.80;99.90;;;;;;4436200;30;20228;-78
2023/11/28 14:06:57;;;;;;;36.90;20.40;;;-0.80;99.90;;;;;;4429234;30;20207;-81
2023/11/28 14:37:36;;;;;;;31.97;16.97;;;-0.90;99.90;;;;;;4490176;30;21658;-78
2023/11/28 14:58:03;;;;;;;37.73;21.17;;;-1.00;99.90;;;;;;4614114;29;20223;-81
2023/11/28 15:18:14;;;;;;;37.40;20.67;;;-1.00;99.90;;;;;;4605646;30;20210;-84
2023/11/28 15:43:25;;;;;;;38.60;21.20;;;-1.10;99.90;;;;;;4729085;29;20896;-83
2023/11/28 16:03:37;;;;;;;50.10;26.63;;;-1.10;99.90;;;;;;4697583;29;21186;-81
2023/11/28 16:34:15;;;;;;;42.43;20.73;;;-1.30;99.90;;;;;;4678053;29;20272;-82
2023/11/28 16:54:45;;;;;;;42.93;22.83;;;-1.30;99.90;;;;;;4668662;30;20206;-84
2023/11/28 17:30:16;;;;;;;43.43;23.50;;;-1.40;99.90;;;;;;4747229;29;20557;-82
2023/11/28 18:00:25;;;;;;;46.23;25.07;;;-1.60;99.90;;;;;;4677924;30;20234;-82
2023/11/28 18:20:54;;;;;;;58.93;29.13;;;-1.70;99.90;;;;;;4666145;29;20205;-81
2023/11/28 18:41:01;;;;;;;61.27;29.40;;;-1.90;99.90;;;;;;4528931;30;20225;-82
2023/11/28 19:11:02;;;;;;;51.60;27.33;;;-2.10;99.90;;;;;;4491447;30;20282;-83
2023/11/28 19:37:08;;;;;;;54.90;28.33;;;-2.00;99.90;;;;;;4533532;30;20353;-84
2023/11/28 20:06:51;;;;;;;52.93;27.60;;;-2.20;99.90;;;;;;4646089;29;20625;-86
2023/11/28 20:27:10;;;;;;;43.77;21.97;;;-2.10;99.90;;;;;;4655042;29;20451;-85
2023/11/28 20:52:57;;;;;;;48.97;23.33;;;-2.20;99.90;;;;;;4698642;29;20306;-84
2023/11/28 21:44:03;;;;;;;50.07;24.20;;;-2.20;99.90;;;;;;4630302;30;21104;-85
2023/11/28 21:48:24;;;;;;;52.90;26.03;;;-2.10;99.90;;;;;;4588029;30;21281;-84
2023/11/28 22:09:07;;;;;;;50.17;25.73;;;-2.30;99.90;;;;;;4654904;29;20555;-86
2023/11/28 22:29:27;;;;;;;35.77;19.70;;;-2.30;99.90;;;;;;4514898;30;20361;-83
2023/11/28 22:54:42;;;;;;;56.43;26.53;;;-2.40;99.90;;;;;;4496450;30;20427;-84
2023/11/28 23:50:50;;;;;;;65.70;28.27;;;-2.50;99.90;;;;;;4528360;30;20317;-84
